createdAt,value
2019-01-27T00:00:17.437Z,99.99
2019-01-27T00:01:27.470Z,99.99
2019-01-27T00:02:37.575Z,99.99
2019-01-27T00:03:47.652Z,99.99
2019-01-27T00:04:57.759Z,99.99
2019-01-27T00:06:07.608Z,99.99
2019-01-27T00:07:17.922Z,99.99
2019-01-27T00:08:28.054Z,99.99
2019-01-27T00:09:37.901Z,99.99
2019-01-27T00:10:48.002Z,99.99
2019-01-27T00:11:58.085Z,99.99
2019-01-27T00:13:08.163Z,99.99
2019-01-27T00:14:18.245Z,99.99
2019-01-27T00:15:28.348Z,99.99
2019-01-27T00:16:38.443Z,99.99
2019-01-27T00:17:48.621Z,99.99
2019-01-27T00:18:58.800Z,99.99
2019-01-27T00:20:08.932Z,99.99
2019-01-27T00:21:19.250Z,99.99
2019-01-27T00:22:29.174Z,99.99
2019-01-27T00:23:39.235Z,99.99
2019-01-27T00:24:49.061Z,99.99
2019-01-27T00:25:58.899Z,99.99
2019-01-27T00:27:08.728Z,99.99
2019-01-27T00:28:18.899Z,99.99
2019-01-27T00:29:28.968Z,99.99
2019-01-27T00:30:38.815Z,99.99
2019-01-27T00:31:48.947Z,99.99
2019-01-27T00:32:59.096Z,99.99
2019-01-27T00:34:09.161Z,99.99
2019-01-27T00:35:18.986Z,99.99
2019-01-27T00:36:29.275Z,99.99
2019-01-27T00:37:54.029Z,99.99
2019-01-27T00:39:06.545Z,99.99
2019-01-27T00:40:16.380Z,99.99
2019-01-27T00:41:26.458Z,99.99
2019-01-27T00:42:36.735Z,99.99
2019-01-27T00:43:47.140Z,99.99
2019-01-27T00:44:57.222Z,99.99
2019-01-27T00:46:07.307Z,99.99
2019-01-27T00:47:17.387Z,99.99
2019-01-27T00:48:27.187Z,99.99
2019-01-27T00:49:36.993Z,99.99
2019-01-27T00:50:47.077Z,99.99
2019-01-27T00:51:57.185Z,99.99
2019-01-27T00:53:07.281Z,99.99
2019-01-27T00:54:17.384Z,99.99
2019-01-27T00:55:27.505Z,99.99
2019-01-27T00:56:37.302Z,99.99
2019-01-27T00:57:47.405Z,99.99
2019-01-27T00:58:57.478Z,99.99
2019-01-27T01:00:07.762Z,99.99
2019-01-27T01:01:18.024Z,99.99
2019-01-27T01:02:28.111Z,99.99
2019-01-27T01:03:37.968Z,99.99
2019-01-27T01:04:47.766Z,99.99
2019-01-27T01:05:58.111Z,99.99
2019-01-27T01:07:10.933Z,99.99
2019-01-27T01:08:21.000Z,99.99
2019-01-27T01:09:30.884Z,99.99
2019-01-27T01:10:40.946Z,99.99
2019-01-27T01:11:50.786Z,99.99
2019-01-27T01:13:01.175Z,99.99
2019-01-27T01:14:11.250Z,99.99
2019-01-27T01:15:21.573Z,99.99
2019-01-27T01:16:31.672Z,99.99
2019-01-27T01:17:41.735Z,99.99
2019-01-27T01:18:51.792Z,99.99
2019-01-27T01:20:01.870Z,99.99
2019-01-27T01:21:11.933Z,99.99
2019-01-27T01:22:21.999Z,99.99
2019-01-27T01:23:32.067Z,99.99
2019-01-27T01:24:41.871Z,99.99
2019-01-27T01:25:51.939Z,99.99
2019-01-27T01:27:02.090Z,99.99
2019-01-27T01:28:12.148Z,99.99
2019-01-27T01:29:22.220Z,99.99
2019-01-27T01:30:32.278Z,99.99
2019-01-27T01:31:42.345Z,99.99
2019-01-27T01:32:52.153Z,99.99
2019-01-27T01:34:02.209Z,99.99
2019-01-27T01:35:12.276Z,99.99
2019-01-27T01:36:22.584Z,99.99
2019-01-27T01:37:32.853Z,99.99
2019-01-27T01:38:42.765Z,99.99
2019-01-27T01:39:52.831Z,99.99
2019-01-27T01:41:02.874Z,99.99
2019-01-27T01:42:12.983Z,99.99
2019-01-27T01:43:23.059Z,99.99
2019-01-27T01:44:33.125Z,99.99
2019-01-27T01:45:43.236Z,99.99
2019-01-27T01:46:53.296Z,99.99
2019-01-27T01:48:04.095Z,99.99
2019-01-27T01:49:13.888Z,99.99
2019-01-27T01:50:24.016Z,99.99
2019-01-27T01:51:33.839Z,99.99
2019-01-27T01:52:43.646Z,99.99
2019-01-27T01:53:53.444Z,99.99
2019-01-27T01:55:03.827Z,99.99
2019-01-27T01:56:13.627Z,99.99
2019-01-27T01:57:23.701Z,99.99
2019-01-27T01:58:33.659Z,99.99
2019-01-27T01:59:43.778Z,99.99
2019-01-27T02:00:53.838Z,99.99
2019-01-27T02:02:03.956Z,99.99
2019-01-27T02:03:14.023Z,99.99
2019-01-27T02:04:23.828Z,99.99
2019-01-27T02:05:33.897Z,99.99
2019-01-27T02:06:43.938Z,99.99
2019-01-27T02:07:53.750Z,99.99
2019-01-27T02:09:04.063Z,99.99
2019-01-27T02:10:14.229Z,99.99
2019-01-27T02:11:24.342Z,99.99
2019-01-27T02:12:34.404Z,99.99
2019-01-27T02:13:44.200Z,99.99
2019-01-27T02:14:54.315Z,99.99
2019-01-27T02:16:04.393Z,99.99
2019-01-27T02:17:14.520Z,99.99
2019-01-27T02:18:24.474Z,99.99
2019-01-27T02:19:34.560Z,99.99
2019-01-27T02:20:44.373Z,99.99
2019-01-27T02:21:54.445Z,99.99
2019-01-27T02:23:04.278Z,99.99
2019-01-27T02:24:14.335Z,99.99
2019-01-27T02:25:24.378Z,99.99
2019-01-27T02:26:34.427Z,99.99
2019-01-27T02:27:44.480Z,99.99
2019-01-27T02:28:54.638Z,99.99
2019-01-27T02:30:04.528Z,99.99
2019-01-27T02:31:14.633Z,99.99
2019-01-27T02:32:24.744Z,99.99
2019-01-27T02:33:34.816Z,99.99
2019-01-27T02:34:44.709Z,99.99
2019-01-27T02:35:54.782Z,99.99
2019-01-27T02:37:04.857Z,99.99
2019-01-27T02:38:14.915Z,99.99
2019-01-27T02:39:25.021Z,99.99
2019-01-27T02:40:35.134Z,99.99
2019-01-27T02:41:45.206Z,99.99
2019-01-27T02:42:55.297Z,99.99
2019-01-27T02:44:05.362Z,99.99
2019-01-27T02:45:15.173Z,99.99
2019-01-27T02:46:25.306Z,99.99
2019-01-27T02:47:35.397Z,99.99
2019-01-27T02:48:45.450Z,99.99
2019-01-27T02:49:55.501Z,99.99
2019-01-27T02:51:05.358Z,99.99
2019-01-27T02:52:15.459Z,99.99
2019-01-27T02:53:25.561Z,99.99
2019-01-27T02:54:35.636Z,99.99
2019-01-27T02:55:45.696Z,99.99
2019-01-27T02:56:55.983Z,99.99
2019-01-27T02:58:06.051Z,99.99
2019-01-27T02:59:16.112Z,99.99
2019-01-27T03:00:25.920Z,99.99
2019-01-27T03:01:35.977Z,99.99
2019-01-27T03:02:50.952Z,99.99
2019-01-27T03:34:34.188Z,97.3
2019-01-27T03:35:44.100Z,97.59
2019-01-27T03:36:54.990Z,98.44
2019-01-27T03:38:06.009Z,99.2
2019-01-27T03:39:15.930Z,99.58
2019-01-27T03:40:26.099Z,99.99
2019-01-27T03:41:36.374Z,99.99
2019-01-27T03:42:46.500Z,99.99
2019-01-27T03:43:56.555Z,99.99
2019-01-27T03:45:08.711Z,99.99
2019-01-27T03:46:18.964Z,99.99
2019-01-27T03:47:29.029Z,99.99
2019-01-27T03:48:38.833Z,99.99
2019-01-27T03:49:48.654Z,99.99
2019-01-27T03:50:58.823Z,99.99
2019-01-27T03:52:09.197Z,99.99
2019-01-27T03:53:19.260Z,99.99
2019-01-27T03:54:29.059Z,99.99
2019-01-27T03:55:39.131Z,99.99
2019-01-27T03:56:49.201Z,99.99
2019-01-27T03:57:59.376Z,99.99
2019-01-27T03:59:11.241Z,99.99
2019-01-27T04:00:20.663Z,99.99
2019-01-27T04:01:30.947Z,99.99
2019-01-27T04:02:41.028Z,99.99
2019-01-27T04:03:51.104Z,99.99
2019-01-27T04:05:01.275Z,99.99
2019-01-27T04:06:11.330Z,99.99
2019-01-27T04:07:20.888Z,99.99
2019-01-27T04:08:31.049Z,99.99
2019-01-27T04:09:41.107Z,99.99
2019-01-27T04:10:51.171Z,99.99
2019-01-27T04:12:01.500Z,99.99
2019-01-27T04:13:11.549Z,99.99
2019-01-27T04:14:21.391Z,99.99
2019-01-27T04:15:31.525Z,99.99
2019-01-27T04:16:41.581Z,99.99
2019-01-27T04:17:51.620Z,99.99
2019-01-27T04:19:01.855Z,99.99
2019-01-27T04:20:11.912Z,99.99
2019-01-27T04:21:22.106Z,99.99
2019-01-27T04:22:32.146Z,99.99
2019-01-27T04:23:42.662Z,99.99
2019-01-27T04:24:52.479Z,99.99
2019-01-27T04:26:02.699Z,99.99
2019-01-27T04:27:12.782Z,99.99
2019-01-27T04:28:22.833Z,99.99
2019-01-27T04:29:32.684Z,99.99
2019-01-27T04:30:42.732Z,99.99
2019-01-27T04:31:52.786Z,99.99
2019-01-27T04:33:03.557Z,99.99
2019-01-27T04:34:13.657Z,99.99
2019-01-27T04:35:23.769Z,99.99
2019-01-27T04:36:33.807Z,99.99
2019-01-27T04:37:43.901Z,99.99
2019-01-27T04:38:53.711Z,99.99
2019-01-27T04:40:03.764Z,99.99
2019-01-27T04:41:14.080Z,99.99
2019-01-27T04:42:24.149Z,99.99
2019-01-27T04:43:34.200Z,99.99
2019-01-27T04:44:44.019Z,99.99
2019-01-27T04:45:54.067Z,99.99
2019-01-27T04:47:04.141Z,99.99
2019-01-27T04:48:14.410Z,99.99
2019-01-27T04:49:24.507Z,99.99
2019-01-27T04:50:34.329Z,99.99
2019-01-27T04:51:44.120Z,99.99
2019-01-27T04:52:54.177Z,99.99
2019-01-27T04:54:04.256Z,99.99
2019-01-27T04:55:14.353Z,99.99
2019-01-27T04:56:24.159Z,99.99
2019-01-27T04:57:34.215Z,99.99
2019-01-27T04:58:44.336Z,99.99
2019-01-27T04:59:54.151Z,99.99
2019-01-27T05:01:04.424Z,99.99
2019-01-27T05:02:14.470Z,99.99
2019-01-27T05:03:24.270Z,99.99
2019-01-27T05:04:34.605Z,99.99
2019-01-27T05:05:44.466Z,99.99
2019-01-27T05:06:54.525Z,99.99
2019-01-27T05:08:05.989Z,99.99
2019-01-27T05:09:16.326Z,99.99
2019-01-27T05:10:26.379Z,99.99
2019-01-27T05:11:36.677Z,99.99
2019-01-27T05:12:46.498Z,99.99
2019-01-27T05:13:56.611Z,99.99
2019-01-27T05:15:06.396Z,99.99
2019-01-27T05:16:16.481Z,99.99
2019-01-27T05:17:26.554Z,99.99
2019-01-27T05:18:36.604Z,99.99
2019-01-27T05:19:46.764Z,99.99
2019-01-27T05:20:56.555Z,99.99
2019-01-27T05:22:07.243Z,99.99
2019-01-27T05:23:17.295Z,99.99
2019-01-27T05:24:27.356Z,99.99
2019-01-27T05:25:37.406Z,99.99
2019-01-27T05:26:47.468Z,99.99
2019-01-27T05:27:57.538Z,99.99
2019-01-27T05:29:07.591Z,99.99
2019-01-27T05:30:17.643Z,99.99
2019-01-27T05:31:27.772Z,99.99
2019-01-27T05:32:37.840Z,99.99
2019-01-27T05:33:47.382Z,99.99
2019-01-27T05:34:57.178Z,99.99
2019-01-27T05:36:07.214Z,99.99
2019-01-27T05:37:17.062Z,99.99
2019-01-27T05:38:26.853Z,99.99
2019-01-27T05:39:36.914Z,99.99
2019-01-27T05:40:46.965Z,99.99
2019-01-27T05:41:57.030Z,99.99
2019-01-27T05:43:07.123Z,99.99
2019-01-27T05:44:16.919Z,99.99
2019-01-27T05:45:26.717Z,99.99
2019-01-27T05:46:36.771Z,99.99
2019-01-27T05:47:46.842Z,99.99
2019-01-27T05:48:56.946Z,99.99
2019-01-27T05:50:07.587Z,99.99
2019-01-27T05:51:18.093Z,99.99
2019-01-27T05:52:27.892Z,99.99
2019-01-27T05:53:37.706Z,99.99
2019-01-27T05:54:47.806Z,99.99
2019-01-27T05:55:57.880Z,99.99
2019-01-27T05:57:08.835Z,99.99
2019-01-27T05:58:18.913Z,99.99
2019-01-27T05:59:28.713Z,99.99
2019-01-27T06:00:38.585Z,99.99
2019-01-27T06:01:48.647Z,99.99
2019-01-27T06:02:58.717Z,99.99
2019-01-27T06:04:09.255Z,99.99
2019-01-27T06:05:19.461Z,99.99
2019-01-27T06:06:29.365Z,99.99
2019-01-27T06:07:39.201Z,99.99
2019-01-27T06:08:49.273Z,99.99
2019-01-27T06:09:59.108Z,99.99
2019-01-27T06:11:09.159Z,99.99
2019-01-27T06:12:19.209Z,99.99
2019-01-27T06:13:29.268Z,99.99
2019-01-27T06:14:39.323Z,99.99
2019-01-27T06:15:49.394Z,99.99
2019-01-27T06:16:59.445Z,99.99
2019-01-27T06:18:10.050Z,99.99
2019-01-27T06:19:20.109Z,99.99
2019-01-27T06:20:30.232Z,99.99
2019-01-27T06:21:40.042Z,99.99
2019-01-27T06:22:50.101Z,99.99
2019-01-27T06:24:14.787Z,99.99
2019-01-27T06:25:26.129Z,99.99
2019-01-27T06:26:36.516Z,99.99
2019-01-27T06:27:46.628Z,99.99
2019-01-27T06:28:56.783Z,99.99
2019-01-27T06:30:08.175Z,99.99
2019-01-27T06:31:18.234Z,99.99
2019-01-27T06:32:28.284Z,99.99
2019-01-27T06:33:38.346Z,99.99
2019-01-27T06:34:48.157Z,99.99
2019-01-27T06:35:58.220Z,99.99
2019-01-27T06:37:09.062Z,99.99
2019-01-27T06:38:19.163Z,99.99
2019-01-27T06:39:29.475Z,99.99
2019-01-27T06:40:39.565Z,99.99
2019-01-27T06:41:49.683Z,99.99
2019-01-27T06:43:00.007Z,99.99
2019-01-27T06:44:09.795Z,99.99
2019-01-27T06:45:20.341Z,99.99
2019-01-27T06:46:30.413Z,99.99
2019-01-27T06:47:40.544Z,99.99
2019-01-27T06:48:50.403Z,99.99
2019-01-27T06:50:01.918Z,99.99
2019-01-27T06:51:11.973Z,99.99
2019-01-27T06:52:21.764Z,99.99
2019-01-27T06:53:31.885Z,99.99
2019-01-27T06:54:41.919Z,99.99
2019-01-27T06:55:52.219Z,99.99
2019-01-27T06:57:03.580Z,99.99
2019-01-27T06:58:13.640Z,99.99
2019-01-27T06:59:23.745Z,99.99
2019-01-27T07:00:33.795Z,99.99
2019-01-27T07:01:43.610Z,99.99
2019-01-27T07:02:53.670Z,99.99
2019-01-27T07:04:03.713Z,99.99
2019-01-27T07:05:13.763Z,99.99
2019-01-27T07:06:23.812Z,99.99
2019-01-27T07:07:34.016Z,99.99
2019-01-27T07:08:44.114Z,99.99
2019-01-27T07:09:54.271Z,99.99
2019-01-27T07:11:05.882Z,99.99
2019-01-27T07:12:15.925Z,99.99
2019-01-27T07:13:25.980Z,99.99
2019-01-27T07:14:35.777Z,99.99
2019-01-27T07:15:45.883Z,99.99
2019-01-27T07:16:55.719Z,99.99
2019-01-27T07:18:06.559Z,99.99
2019-01-27T07:19:16.349Z,99.99
2019-01-27T07:20:26.185Z,99.99
2019-01-27T07:21:36.257Z,99.99
2019-01-27T07:22:46.316Z,99.99
2019-01-27T07:23:56.347Z,99.99
2019-01-27T07:25:07.464Z,99.99
2019-01-27T07:26:17.254Z,99.99
2019-01-27T07:27:27.304Z,99.99
2019-01-27T07:28:37.547Z,99.99
2019-01-27T07:29:47.095Z,99.9
2019-01-27T07:30:57.163Z,99.99
2019-01-27T07:32:07.222Z,99.99
2019-01-27T07:33:17.372Z,99.62
2019-01-27T07:34:27.455Z,99.99
2019-01-27T07:35:37.543Z,99.99
2019-01-27T07:36:47.608Z,99.99
2019-01-27T07:37:57.410Z,99.99
2019-01-27T07:39:07.462Z,99.52
2019-01-27T07:40:17.275Z,99.71
2019-01-27T07:41:27.363Z,99.71
2019-01-27T07:42:37.176Z,99.71
2019-01-27T07:43:46.984Z,99.99
2019-01-27T07:44:57.045Z,99.81
2019-01-27T07:46:06.897Z,99.67
2019-01-27T07:47:16.962Z,99.99
2019-01-27T07:48:27.076Z,99.96
2019-01-27T07:49:37.335Z,99.99
2019-01-27T07:50:47.447Z,99.96
2019-01-27T07:51:57.277Z,99.48
2019-01-27T07:53:07.367Z,99.58
2019-01-27T07:54:17.416Z,99.48
2019-01-27T07:55:27.479Z,99.29
2019-01-27T07:56:37.552Z,99.96
2019-01-27T07:57:47.664Z,99.96
2019-01-27T07:58:57.443Z,99.77
2019-01-27T08:00:07.559Z,99.77
2019-01-27T08:01:18.286Z,99.86
2019-01-27T08:02:28.106Z,99.77
2019-01-27T08:03:38.203Z,99.86
2019-01-27T08:04:48.259Z,99.99
2019-01-27T08:05:58.306Z,99.48
2019-01-27T08:07:08.372Z,99.96
2019-01-27T08:08:18.472Z,99.99
2019-01-27T08:09:28.558Z,99.29
2019-01-27T08:10:38.876Z,99.48
2019-01-27T08:11:48.688Z,99.2
2019-01-27T08:12:58.744Z,99.39
2019-01-27T08:14:08.862Z,99.48
2019-01-27T08:15:18.652Z,99.96
2019-01-27T08:16:28.717Z,99.39
2019-01-27T08:17:39.014Z,99.48
2019-01-27T08:18:49.088Z,99.29
2019-01-27T08:19:59.380Z,99.77
2019-01-27T08:21:09.451Z,99.86
2019-01-27T08:22:19.530Z,99.67
2019-01-27T08:23:29.629Z,99.99
2019-01-27T08:24:39.454Z,99.96
2019-01-27T08:25:49.526Z,99.48
2019-01-27T08:26:59.575Z,99.29
2019-01-27T08:28:09.664Z,99.48
2019-01-27T08:29:19.755Z,99.06
2019-01-27T08:30:29.924Z,99.15
2019-01-27T08:31:39.715Z,99.15
2019-01-27T08:32:49.575Z,99.44
2019-01-27T08:33:59.646Z,99.44
2019-01-27T08:35:09.717Z,99.15
2019-01-27T08:36:19.579Z,99.15
2019-01-27T08:37:30.281Z,99.15
2019-01-27T08:38:40.343Z,99.53
2019-01-27T08:39:50.460Z,99.53
2019-01-27T08:41:00.311Z,98.87
2019-01-27T08:42:10.642Z,99.15
2019-01-27T08:43:20.740Z,99.15
2019-01-27T08:44:30.836Z,99.53
2019-01-27T08:45:40.897Z,99.06
2019-01-27T08:46:50.709Z,99.25
2019-01-27T08:48:00.808Z,99.06
2019-01-27T08:49:10.854Z,98.87
2019-01-27T08:50:20.969Z,98.87
2019-01-27T08:51:30.523Z,98.77
2019-01-27T08:52:40.620Z,98.77
2019-01-27T08:53:50.687Z,98.21
2019-01-27T08:55:00.998Z,98.49
2019-01-27T08:56:11.073Z,98.16
2019-01-27T08:57:21.129Z,97.88
2019-01-27T08:58:30.951Z,97.69
2019-01-27T08:59:40.527Z,97.4
2019-01-27T09:00:50.622Z,97.55
2019-01-27T09:02:01.063Z,98.07
2019-01-27T09:03:11.193Z,97.83
2019-01-27T09:04:21.252Z,97.88
2019-01-27T09:05:31.322Z,98.16
2019-01-27T09:06:41.374Z,98.07
2019-01-27T09:07:51.451Z,99.11
2019-01-27T09:09:01.498Z,98.25
2019-01-27T09:10:11.696Z,98.54
2019-01-27T09:11:21.786Z,98.54
2019-01-27T09:12:32.107Z,98.25
2019-01-27T09:13:42.458Z,98.44
2019-01-27T09:14:53.970Z,98.92
2019-01-27T09:16:04.769Z,98.73
2019-01-27T09:17:15.644Z,99.2
2019-01-27T09:18:26.046Z,99.3
2019-01-27T09:19:36.413Z,99.3
2019-01-27T09:20:47.670Z,99.11
2019-01-27T09:21:58.476Z,98.92
2019-01-27T09:23:09.899Z,98.82
2019-01-27T09:24:20.647Z,98.92
2019-01-27T09:25:31.270Z,98.92
2019-01-27T09:26:41.341Z,99.2
2019-01-27T09:27:51.645Z,98.92
2019-01-27T09:29:01.735Z,98.44
2019-01-27T09:30:11.825Z,97.92
2019-01-27T09:31:21.895Z,97.83
2019-01-27T09:32:31.710Z,97.55
2019-01-27T09:33:41.791Z,96.83
2019-01-27T09:34:51.608Z,96.93
2019-01-27T09:36:01.692Z,96.26
2019-01-27T09:37:11.734Z,95.94
2019-01-27T09:38:21.768Z,95.65
2019-01-27T09:39:32.195Z,95.51
2019-01-27T09:40:42.336Z,94.74
2019-01-27T09:41:52.386Z,94.79
2019-01-27T09:43:03.051Z,95.17
2019-01-27T09:44:13.361Z,94.89
2019-01-27T09:45:23.445Z,95.36
2019-01-27T09:46:33.524Z,95.32
2019-01-27T09:47:43.598Z,95.32
2019-01-27T09:48:53.414Z,95.46
2019-01-27T09:50:06.007Z,96.65
2019-01-27T09:51:16.092Z,97.12
2019-01-27T09:52:26.320Z,97.31
2019-01-27T09:53:36.143Z,97.74
2019-01-27T09:54:46.001Z,98.02
2019-01-27T09:55:56.166Z,98.88
2019-01-27T09:57:05.978Z,98.45
2019-01-27T09:58:17.486Z,99.11
2019-01-27T09:59:27.582Z,99.11
2019-01-27T10:00:37.716Z,99.11
2019-01-27T10:01:47.814Z,99.02
2019-01-27T10:02:57.662Z,98.92
2019-01-27T10:04:07.519Z,98.73
2019-01-27T10:05:17.645Z,99.11
2019-01-27T10:06:27.706Z,99.4
2019-01-27T10:07:37.510Z,99.54
2019-01-27T10:08:47.344Z,99.3
2019-01-27T10:09:57.420Z,98.73
2019-01-27T10:11:08.461Z,98.54
2019-01-27T10:12:18.598Z,98.26
2019-01-27T10:13:28.681Z,98.07
2019-01-27T10:14:38.501Z,98.45
2019-01-27T10:15:48.633Z,98.07
2019-01-27T10:16:58.737Z,98.16
2019-01-27T10:18:08.589Z,97.69
2019-01-27T10:19:18.656Z,97.69
2019-01-27T10:20:28.714Z,97.78
2019-01-27T10:21:38.928Z,97.78
2019-01-27T10:22:49.491Z,97.41
2019-01-27T10:23:59.519Z,97.88
2019-01-27T10:25:15.809Z,97.78
2019-01-27T10:26:26.137Z,98.26
2019-01-27T10:27:36.501Z,97.88
2019-01-27T10:28:46.626Z,98.16
2019-01-27T10:29:56.807Z,98.35
2019-01-27T10:31:06.640Z,98.26
2019-01-27T10:32:16.726Z,97.88
2019-01-27T10:33:26.867Z,98.26
2019-01-27T10:34:36.941Z,97.69
2019-01-27T10:35:47.011Z,97.69
2019-01-27T10:36:57.091Z,97.45
2019-01-27T10:38:07.176Z,97.83
2019-01-27T10:39:17.295Z,98.21
2019-01-27T10:40:27.349Z,97.92
2019-01-27T10:41:42.857Z,98.02
2019-01-27T10:42:52.925Z,97.83
2019-01-27T10:44:03.593Z,97.74
2019-01-27T10:45:13.726Z,97.74
2019-01-27T10:46:23.804Z,97.83
2019-01-27T10:47:33.876Z,98.21
2019-01-27T10:48:43.962Z,98.21
2019-01-27T10:49:54.189Z,98.59
2019-01-27T10:51:06.566Z,98.31
2019-01-27T10:52:16.650Z,97.92
2019-01-27T10:53:34.543Z,98.73
2019-01-27T10:54:45.002Z,98.54
2019-01-27T10:55:55.135Z,98.54
2019-01-27T10:57:05.209Z,98.73
2019-01-27T10:58:15.118Z,98.45
2019-01-27T10:59:25.194Z,98.35
2019-01-27T11:00:35.339Z,98.45
2019-01-27T11:01:45.148Z,97.88
2019-01-27T11:02:55.223Z,98.54
2019-01-27T11:04:05.302Z,98.73
2019-01-27T11:05:15.388Z,98.54
2019-01-27T11:06:25.500Z,98.45
2019-01-27T11:07:35.399Z,99.02
2019-01-27T11:08:44.972Z,98.73
2019-01-27T11:09:55.303Z,98.45
2019-01-27T11:11:05.455Z,98.35
2019-01-27T11:12:15.542Z,98.4
2019-01-27T11:13:25.610Z,98.45
2019-01-27T11:14:35.778Z,98.3
2019-01-27T11:15:45.932Z,98.3
2019-01-27T11:16:56.105Z,98.68
2019-01-27T11:18:06.202Z,98.59
2019-01-27T11:19:16.017Z,98.49
2019-01-27T11:20:26.361Z,98.49
2019-01-27T11:21:43.371Z,98.49
2019-01-27T11:22:53.450Z,98.59
2019-01-27T11:24:03.252Z,98.78
2019-01-27T11:25:13.346Z,98.02
2019-01-27T11:26:23.504Z,98.21
2019-01-27T11:27:35.628Z,98.45
2019-01-27T11:28:45.458Z,98.21
2019-01-27T11:29:55.530Z,97.97
2019-01-27T11:31:06.570Z,97.97
2019-01-27T11:32:16.702Z,97.88
2019-01-27T11:33:26.536Z,98.07
2019-01-27T11:34:36.696Z,97.6
2019-01-27T11:35:46.823Z,97.69
2019-01-27T11:36:56.732Z,97.88
2019-01-27T11:38:08.382Z,97.88
2019-01-27T11:39:18.234Z,97.88
2019-01-27T11:40:28.302Z,97.97
2019-01-27T11:41:38.606Z,97.97
2019-01-27T11:42:48.667Z,97.69
2019-01-27T11:43:58.952Z,97.97
2019-01-27T11:45:09.038Z,97.88
2019-01-27T11:46:18.905Z,97.88
2019-01-27T11:47:29.233Z,97.88
2019-01-27T11:48:39.067Z,97.6
2019-01-27T11:52:18.054Z,97.97
2019-01-27T11:53:28.144Z,97.69
2019-01-27T11:54:38.261Z,98.16
2019-01-27T11:55:48.334Z,98.07
2019-01-27T11:56:58.153Z,97.88
2019-01-27T11:58:09.015Z,98.16
2019-01-27T11:59:19.091Z,97.88
2019-01-27T12:00:29.359Z,98.26
2019-01-27T12:01:39.181Z,97.97
2019-01-27T12:02:49.501Z,98.07
2019-01-27T12:03:59.641Z,97.69
2019-01-27T12:05:09.712Z,97.69
2019-01-27T12:06:19.835Z,97.31
2019-01-27T12:07:30.244Z,97.6
2019-01-27T12:08:40.318Z,97.88
2019-01-27T12:09:50.402Z,97.69
2019-01-27T12:11:00.549Z,98.26
2019-01-27T12:12:10.611Z,98.07
2019-01-27T12:13:20.751Z,97.88
2019-01-27T12:14:30.934Z,97.88
2019-01-27T12:15:41.643Z,97.97
2019-01-27T12:16:51.465Z,97.97
2019-01-27T12:18:01.280Z,97.88
2019-01-27T12:19:11.625Z,97.97
2019-01-27T12:20:21.693Z,97.97
2019-01-27T12:21:31.513Z,98.16
2019-01-27T12:22:41.576Z,97.69
2019-01-27T12:23:52.349Z,97.6
2019-01-27T12:25:03.262Z,97.88
2019-01-27T12:26:13.341Z,98.73
2019-01-27T12:27:22.906Z,97.78
2019-01-27T12:28:32.754Z,98.26
2019-01-27T12:29:43.069Z,98.16
2019-01-27T12:30:52.897Z,98.26
2019-01-27T12:32:03.848Z,98.45
2019-01-27T12:33:13.924Z,98.73
2019-01-27T12:34:24.025Z,98.73
2019-01-27T12:35:34.103Z,98.64
2019-01-27T12:36:44.157Z,98.45
2019-01-27T12:37:54.235Z,98.45
2019-01-27T12:39:06.245Z,98.3
2019-01-27T12:40:15.540Z,99.02
2019-01-27T12:41:25.620Z,98.49
2019-01-27T12:42:35.928Z,98.97
2019-01-27T12:43:45.989Z,98.97
2019-01-27T12:44:56.076Z,98.97
2019-01-27T12:46:07.302Z,98.97
2019-01-27T12:47:17.177Z,99.02
2019-01-27T12:48:28.019Z,98.49
2019-01-27T12:49:37.899Z,98.49
2019-01-27T12:50:47.982Z,98.4
2019-01-27T12:51:58.041Z,98.49
2019-01-27T12:53:10.208Z,98.49
2019-01-27T12:54:20.319Z,98.59
2019-01-27T12:55:30.453Z,99.16
2019-01-27T12:56:40.558Z,98.97
2019-01-27T12:57:51.721Z,98.97
2019-01-27T12:59:01.701Z,98.97
2019-01-27T13:00:11.543Z,98.3
2019-01-27T13:01:21.610Z,98.49
2019-01-27T13:02:31.695Z,98.97
2019-01-27T13:03:41.814Z,98.87
2019-01-27T13:04:52.370Z,98.68
2019-01-27T13:06:02.720Z,98.87
2019-01-27T13:07:12.562Z,99.06
2019-01-27T13:08:22.396Z,99.16
2019-01-27T13:09:33.745Z,98.87
2019-01-27T13:10:43.858Z,99.35
2019-01-27T13:11:53.700Z,99.16
2019-01-27T13:13:03.841Z,99.44
2019-01-27T13:14:17.184Z,99.44
2019-01-27T13:15:27.348Z,99.16
2019-01-27T13:16:37.248Z,99.06
2019-01-27T13:17:47.391Z,98.97
2019-01-27T13:18:57.479Z,99.73
2019-01-27T13:20:09.121Z,99.26
2019-01-27T13:21:18.942Z,99.35
2019-01-27T13:22:29.289Z,99.63
2019-01-27T13:23:39.126Z,99.63
2019-01-27T13:24:49.415Z,98.87
2019-01-27T13:25:59.298Z,99.26
2019-01-27T13:27:11.662Z,99.26
2019-01-27T13:28:21.902Z,99.26
2019-01-27T13:29:32.007Z,99.26
2019-01-27T13:30:42.092Z,99.26
2019-01-27T13:31:52.265Z,99.26
2019-01-27T13:33:05.814Z,99.06
2019-01-27T13:34:15.640Z,99.63
2019-01-27T13:35:25.769Z,99.54
2019-01-27T13:36:35.614Z,99.63
2019-01-27T13:37:45.738Z,99.63
2019-01-27T13:38:56.062Z,99.63
2019-01-27T13:40:07.034Z,99.35
2019-01-27T13:41:16.847Z,99.44
2019-01-27T13:42:26.903Z,99.73
2019-01-27T13:43:37.011Z,99.54
2019-01-27T13:44:47.098Z,99.63
2019-01-27T13:45:57.174Z,99.99
2019-01-27T13:47:06.990Z,99.99
2019-01-27T13:48:17.098Z,99.99
2019-01-27T13:49:27.196Z,99.99
2019-01-27T13:50:37.279Z,99.99
2019-01-27T13:51:47.311Z,99.99
2019-01-27T13:52:57.431Z,99.91
2019-01-27T13:54:07.243Z,99.73
2019-01-27T13:55:17.296Z,99.73
2019-01-27T13:56:27.351Z,99.68
2019-01-27T13:57:37.196Z,99.58
2019-01-27T13:58:47.270Z,99.87
2019-01-27T13:59:57.348Z,99.68
2019-01-27T14:01:07.420Z,99.99
2019-01-27T14:02:17.585Z,99.99
2019-01-27T14:03:27.743Z,99.99
2019-01-27T14:04:37.828Z,99.87
2019-01-27T14:05:53.865Z,99.96
2019-01-27T14:07:05.763Z,99.99
2019-01-27T14:08:16.198Z,99.68
2019-01-27T14:09:26.359Z,99.99
2019-01-27T14:10:36.657Z,99.77
2019-01-27T14:11:46.463Z,99.99
2019-01-27T14:12:56.750Z,99.96
2019-01-27T14:14:06.915Z,99.87
2019-01-27T14:15:16.997Z,99.99
2019-01-27T14:16:27.057Z,99.99
2019-01-27T14:17:37.124Z,99.99
2019-01-27T14:18:46.999Z,99.99
2019-01-27T14:19:56.807Z,99.99
2019-01-27T14:21:07.364Z,99.99
2019-01-27T14:22:24.247Z,99.99
2019-01-27T14:23:35.921Z,99.99
2019-01-27T14:24:46.006Z,99.99
2019-01-27T14:25:56.192Z,99.99
2019-01-27T14:27:08.284Z,99.99
2019-01-27T14:28:18.454Z,99.99
2019-01-27T14:29:28.559Z,99.99
2019-01-27T14:30:38.642Z,99.99
2019-01-27T14:31:48.727Z,99.99
2019-01-27T14:32:58.830Z,99.99
2019-01-27T14:34:08.913Z,99.99
2019-01-27T14:35:19.071Z,99.99
2019-01-27T14:36:29.134Z,99.99
2019-01-27T14:37:38.980Z,99.99
2019-01-27T14:38:48.789Z,99.99
2019-01-27T14:39:58.866Z,99.99
2019-01-27T14:41:08.837Z,99.99
2019-01-27T14:42:19.005Z,99.99
2019-01-27T14:43:29.092Z,99.99
2019-01-27T14:44:39.194Z,99.99
2019-01-27T14:45:49.161Z,99.99
2019-01-27T14:46:59.303Z,99.99
2019-01-27T14:48:09.395Z,99.99
2019-01-27T14:49:19.479Z,99.99
2019-01-27T14:50:29.298Z,99.99
2019-01-27T14:51:39.401Z,99.99
2019-01-27T14:52:49.230Z,99.99
2019-01-27T14:53:59.131Z,99.99
2019-01-27T14:55:09.201Z,99.99
2019-01-27T14:56:19.298Z,99.99
2019-01-27T14:57:29.387Z,99.99
2019-01-27T14:58:39.506Z,99.99
2019-01-27T14:59:50.262Z,99.99
2019-01-27T15:01:00.120Z,99.99
2019-01-27T15:02:10.326Z,99.99
2019-01-27T15:03:20.483Z,99.99
2019-01-27T15:04:30.330Z,99.99
2019-01-27T15:05:40.444Z,99.99
2019-01-27T15:06:50.547Z,99.99
2019-01-27T15:08:00.865Z,99.99
2019-01-27T15:09:10.966Z,99.99
2019-01-27T15:10:21.076Z,99.99
2019-01-27T15:11:31.384Z,99.99
2019-01-27T15:12:41.520Z,99.99
2019-01-27T15:13:51.594Z,99.99
2019-01-27T15:15:02.296Z,99.99
2019-01-27T15:16:12.171Z,99.99
2019-01-27T15:17:22.396Z,99.99
2019-01-27T15:18:32.490Z,99.99
2019-01-27T15:19:42.634Z,99.99
2019-01-27T15:20:52.737Z,99.99
2019-01-27T15:22:02.888Z,99.99
2019-01-27T15:23:12.734Z,99.99
2019-01-27T15:24:22.868Z,99.99
2019-01-27T15:25:33.059Z,99.99
2019-01-27T15:26:43.162Z,99.99
2019-01-27T15:27:53.286Z,99.99
2019-01-27T15:29:03.672Z,99.99
2019-01-27T15:30:14.303Z,99.99
2019-01-27T15:31:24.399Z,99.99
2019-01-27T15:32:34.715Z,99.99
2019-01-27T15:33:44.536Z,99.99
2019-01-27T15:34:54.673Z,99.99
2019-01-27T15:36:06.401Z,99.99
2019-01-27T15:37:16.504Z,99.99
2019-01-27T15:38:26.770Z,99.99